Archival Weather

Republic

Farmingdale, New York (KFRG)

Report from: Sunday, January 28, 2024 1:53 PM EST
Current time: Friday, June 21, 2024 8:21 PM EDT

Current weather – Weather history – Daily summaries
Weather forecast

Present weatherMist
Temperature4.4°C (39.9°F)
Wind chill-0.1°C (31.7°F)
Dew point3.3°C (37.9°F)
Winds 13 kts (6.7 m/s, 15 mph) East-Northeast (60°)
Wind gusts 18 kts (9.3 m/s, 20.7 mph)
Visibility2.5 mi. (4 km)
Clouds Ceiling: Broken clouds 900 ft. (274 m)
Overcast 1,300 ft. (396 m)
Altimeter29.66 in.Hg (1004 mB)
Relative humidity93 %
Density altitude-870 ft. (-265 m)
Sea-level pressure100.5 kPa (1005 mB, 29.66 in.Hg)
Remarks Automated weather observing station without precipitation discriminator
Flight conditions Instrument Meteorological Conditions
Raw dataKFRG 281853Z 06013G18KT 2 1/2SM BR BKN009 OVC013 04/03 A2966 RMK AO1 SLP045 T00440033
An error has occurred. This application may no longer respond until reloaded. Reload 🗙